Forside
METAR-TAF:

METAR-TAF

Lufthavne :

Dallas/Fort Worth International Airport

Dallas / Fort Worth, Texas, USA

Breddekreds: 32-53-49N, længdekreds: 097-01-19W, højde: 183 m

Aktuelle vejr

Denne rapport blev lavet for 45 minutter siden, kl. 23:53 UTC
Vind 11 kt fra nordnordøst
Temperatur 21°C
Fugtighed 43%
Tryk 1022 hPa
Sigt: 16.1 km
Nogle få skyer i en højde af 30000 ft

METAR: KDFW 252353Z 02011KT 10SM FEW300 21/08 A3018 RMK AO2 SLP214 T02060078 10222 20194 53001

Tid: 19:38 (00:38 UTC)

Vejrudsigter

Denne rapport blev lavet for 1 time og 8 minutter siden, kl. 23:30 UTC
Foreløbig gælder fra 26 på 00 UTC til 27 på 06 UTC
Vind 10 kt fra nord
Sigt: 10 km
skyfri
Fra 26 på 1800 UTC
Vind 7 kt fra øst
Sigt: 10 km
Nogle få skyer i en højde af 30000 ft

TAF: KDFW 252330Z 2600/2706 36010KT P6SM SKC FM261800 09007KT P6SM FEW300

Vejrobservationer og prognoser fra mere end 4000 lufthavne (METAR og TAF).

De gule og røde prikker repræsenterer de meteorologiske stationer.

Flyt musen over at se navnet på stationen.

Så klik over at se vejr observationer og prognoser.

At skifte det kort: Klik på de grønne knapper med et sort kors for at zoome ind; på den grønne knap med en bindestreg for at zoome ud; eller på de grønne pile for tilstødende kort.


METAR-TAF: